• Join FlightAware (Why Join?)
  • Login
  • US Flag GB Flag 
18:13 EST


 

Airport Tracker/Info


-or-


 

Live Flight TrackerFlight Track Log ✈ N55VF ✈ 01-May-2013 ✈ KMTN - KPOV

Flight Track Log - Related Links

Times and Time Zones

All times are in EDT time to prevent confusion due to time zone crossing. See the N55VF flight status page for this flight to view local times or setup timezone preferences in your user account.

Time Position Orientation Groundspeed Altitude Reporting Facility
EDT Latitude Longitude Course Direction KTS MPH feet Rate Location/Type
15:28 39.3070 -76.6190 275° West 159 183 4,300  Level FlightAware
15:28 39.3070 -76.6260 270° West 159 183 4,300 240 Level FlightAware
15:29 39.3100 -76.6620 276° West 159 183 4,500 600 Climbing FlightAware
15:30 39.3030 -76.5670 95° East 5,600 780 Climbing FlightAware
15:30 39.3170 -76.7450 276° West 176 203 5,600  Level FlightAware
15:30 39.3190 -76.7720 275° West 186 214 5,600  Level FlightAware
15:31 39.3200 -76.7860 275° West 192 221 5,600  Level FlightAware
15:31 39.3230 -76.8210 276° West 195 224 5,600  Level FlightAware
15:31 39.3240 -76.8350 275° West 196 226 5,600  Level FlightAware
15:32 39.3260 -76.8620 275° West 199 229 5,600  Level FlightAware
15:32 39.3290 -76.9050 275° West 199 229 5,600  Level FlightAware
15:33 39.3320 -76.9390 277° West 199 229 5,600  Level FlightAware
15:33 39.3340 -76.9610 277° West 198 228 5,600  Level FlightAware
15:33 39.3350 -76.9810 274° West 198 228 5,600  Level FlightAware
15:34 39.3370 -76.9990 278° West 199 229 5,600  Level FlightAware
15:34 39.3400 -77.0410 275° West 198 228 5,600  Level FlightAware
15:35 39.3420 -77.0760 274° West 198 228 5,600  Level FlightAware
15:35 39.3430 -77.0860 277° West 198 228 5,600  Level FlightAware
15:36 39.3460 -77.1290 275° West 197 227 5,600  Level FlightAware
15:36 39.3470 -77.1580 273° West 197 227 5,600  Level FlightAware
15:36 39.3490 -77.1840 276° West 197 227 5,600  Level FlightAware
15:37 39.3520 -77.2260 275° West 198 228 5,600  Level FlightAware
15:37 39.3540 -77.2620 274° West 198 228 5,600  Level FlightAware
15:38 39.3550 -77.2910 273° West 198 228 5,600  Level FlightAware
15:38 39.3580 -77.3320 275° West 199 229 5,600  Level FlightAware
15:39 39.3610 -77.3840 274° West 199 229 5,600  Level FlightAware
15:39 39.3620 -77.4110 273° West 200 230 5,600  Level FlightAware
15:40 39.3640 -77.4320 277° West 199 229 5,600  Level FlightAware
15:40 39.3650 -77.4560 273° West 200 230 5,600  Level FlightAware
15:41 39.3670 -77.4940 274° West 200 230 5,600  Level FlightAware
15:41 39.3690 -77.5290 274° West 201 231 5,600  Level FlightAware
15:41 39.3700 -77.5490 274° West 200 230 5,600  Level FlightAware
15:42 39.3710 -77.5700 274° West 200 230 5,600  Level FlightAware
15:42 39.3740 -77.6210 274° West 200 230 5,600  Level FlightAware
15:43 39.3760 -77.6610 274° West 201 231 5,600  Level FlightAware
15:43 39.3780 -77.6890 275° West 200 230 5,600  Level FlightAware
15:44 39.3820 -77.7220 279° West 202 232 5,600 120 Level FlightAware
15:44 39.3900 -77.7390 301° West 198 228 5,700 360 Climbing FlightAware
15:44 39.3980 -77.7500 313° West 192 221 5,800 360 Climbing FlightAware
15:45 39.4170 -77.7790 310° West 191 220 6,000 240 Climbing FlightAware
15:45 39.4330 -77.8090 305° West 193 222 6,100 60 Climbing FlightAware
15:46 39.4450 -77.8310 305° West 193 222 6,100 960 Level FlightAware
15:46 39.4550 -77.8547 305° West 195 224 6,800 720 Climbing Washington Center
15:47 39.4850 -77.9094 305° West 190 219 7,100 240 Climbing Washington Center
15:48 39.5153 -77.9614 307° West 190 219 7,300 240 Climbing Washington Center
15:49 39.5456 -78.0189 304° West 190 219 7,600 300 Climbing Washington Center
15:50 39.5736 -78.0711 305° West 190 219 8,000 120 Climbing Washington Center
15:52 39.6356 -78.1894 304° West 195 224 8,100  Climbing Cleveland Center
15:53 39.6703 -78.2528 305° West 199 229 8,000  Descending Cleveland Center
15:54 39.7006 -78.3139 303° West 200 230 8,100  Climbing Cleveland Center
15:55 39.7331 -78.3694 307° West 199 229 8,100 -60 Level Cleveland Center
15:56 39.7633 -78.4281 304° West 200 230 8,000 -60 Descending Cleveland Center
15:57 39.8000 -78.4917 307° West 199 229 8,000  Level Cleveland Center
15:58 39.8281 -78.5447 305° West 199 229 8,100  Climbing Cleveland Center
15:59 39.8561 -78.6036 302° West 199 229 8,100 -60 Level Cleveland Center
16:00 39.8906 -78.6619 308° West 200 230 8,000 -60 Descending Cleveland Center
16:01 39.9206 -78.7208 304° West 201 231 8,000  Level Cleveland Center
16:02 39.9550 -78.7847 305° West 201 231 8,000  Level Cleveland Center
16:03 39.9850 -78.8436 304° West 200 230 8,000  Level Cleveland Center
16:04 40.0172 -78.9078 303° West 201 231 8,000  Level Cleveland Center
16:05 40.0494 -78.9639 307° West 200 230 8,000  Level Cleveland Center
16:06 40.0836 -79.0311 304° West 198 228 8,000  Level Cleveland Center
16:07 40.1158 -79.0928 304° West 199 229 8,000  Level Cleveland Center
16:08 40.1458 -79.1517 304° West 198 228 8,000  Level Cleveland Center
16:09 40.1778 -79.2081 307° West 199 229 8,000  Level Cleveland Center
16:10 40.2097 -79.2756 302° West 198 228 8,000  Level Cleveland Center
16:11 40.2417 -79.3347 305° West 201 231 8,000  Level Cleveland Center
16:12 40.2714 -79.3911 305° West 199 229 8,000  Level Cleveland Center
16:14 40.3101 -79.4489 311° West  Level FlightAware Approximate
16:21 40.5222 -79.8288 303° West  Level FlightAware Approximate
16:22 40.5501 -79.8850 303° West  Level FlightAware Approximate
16:23 40.5779 -79.9413 303° West  Level FlightAware Approximate
16:24 40.6057 -79.9976 303° West  Level FlightAware Approximate
16:25 40.6335 -80.0540 303° West  Level FlightAware Approximate
16:26 40.6613 -80.1104 303° West  Level FlightAware Approximate
16:27 40.6890 -80.1668 303° West  Level FlightAware Approximate
16:28 40.7167 -80.2234 303° West  Level FlightAware Approximate
16:29 40.7444 -80.2799 303° West  Level FlightAware Approximate
16:30 40.7720 -80.3365 303° West  Level FlightAware Approximate
16:31 40.7996 -80.3932 303° West  Level FlightAware Approximate
16:32 40.8272 -80.4499 303° West  Level FlightAware Approximate
16:33 40.8548 -80.5066 303° West  Level FlightAware Approximate
16:34 40.8823 -80.5634 303° West  Level FlightAware Approximate
16:35 40.9085 -80.6213 298° West  Level FlightAware Approximate
16:36 40.9324 -80.6809 298° West  Level FlightAware Approximate
16:37 40.9563 -80.7406 298° West  Level FlightAware Approximate
16:38 40.9850 -80.7960 310° West  Level FlightAware Approximate
16:39 41.0176 -80.8481 310° West  Level FlightAware Approximate
16:40 41.0501 -80.9002 294° West  Level FlightAware Approximate
16:41 41.0707 -80.9621 294° West  Level FlightAware Approximate
16:42 41.0943 -81.0218 304° West  Level FlightAware Approximate
16:43 41.1225 -81.0782 304° West  Level FlightAware Approximate
16:44 41.1507 -81.1346 304° West  Level FlightAware Approximate
16:45 41.1790 -81.1911 304° West  Level FlightAware Approximate
16:46 41.2000 -81.2500 270° West  Level FlightAware Approximate
16:47 41.2102 -81.2516 270° West  Level Estimated
16:48 41.2102 -81.2516 270° West  Level Estimated
16:49 41.2102 -81.2516 270° West  Level Estimated
16:50 41.2102 -81.2516 270° West  Level Estimated
16:51 41.2102 -81.2516 270° West  Level Estimated
16:52 41.2102 -81.2516 270° West  Level Estimated
16:53 41.2102 -81.2516 270° West  Level Estimated
16:54 41.2102 -81.2516 270° West  Level Estimated
16:55 41.2102 -81.2516 270° West  Level Estimated
16:56 41.2102 -81.2516 270° West  Level Estimated
16:57 41.2102 -81.2516 270° West  Level Estimated
16:58 41.2102 -81.2516 270° West  Level Estimated
16:59 41.2102 -81.2516 270° West  Level Estimated
17:00 41.2102 -81.2516 270° West  Level Estimated
17:01 41.2102 -81.2516 270° West  Level Estimated
17:02 41.2102 -81.2516 270° West  Level Estimated
17:03 41.2102 -81.2516 270° West  Level Estimated
17:04 41.2102 -81.2516 270° West  Level Estimated
17:05 41.2102 -81.2516 270° West  Level Estimated
17:06 41.2102 -81.2516 270° West  Level Estimated